createdAt,value
2022-09-04T00:02:51.505Z,100224.84
2022-09-04T00:05:42.885Z,100218.31
2022-09-04T00:08:38.843Z,100212.94
2022-09-04T00:11:12.098Z,100222.00
2022-09-04T00:13:52.935Z,100216.94
2022-09-04T00:16:32.958Z,100223.63
2022-09-04T00:19:32.058Z,100219.00
2022-09-04T00:22:18.372Z,100227.16
2022-09-04T00:24:54.295Z,100223.56
2022-09-04T00:27:30.901Z,100226.09
2022-09-04T00:30:11.470Z,100231.16
2022-09-04T00:32:38.550Z,100233.41
2022-09-04T00:35:26.692Z,100229.50
2022-09-04T00:38:11.941Z,100233.19
2022-09-04T00:41:01.169Z,100238.44
2022-09-04T00:43:56.203Z,100239.13
2022-09-04T00:46:47.686Z,100235.53
2022-09-04T00:49:36.631Z,100234.44
2022-09-04T00:52:36.470Z,100240.75
2022-09-04T00:55:38.915Z,100241.97
2022-09-04T00:58:29.370Z,100249.56
2022-09-04T01:00:58.533Z,100249.44
2022-09-04T01:03:45.824Z,100251.94
2022-09-04T01:06:26.698Z,100246.91
2022-09-04T01:09:12.214Z,100259.78
2022-09-04T01:11:50.514Z,100264.38
2022-09-04T01:14:42.036Z,100261.06
2022-09-04T01:17:11.378Z,100269.28
2022-09-04T01:19:56.485Z,100265.44
2022-09-04T01:22:32.717Z,100282.56
2022-09-04T01:25:14.092Z,100279.69
2022-09-04T01:28:03.439Z,100284.44
2022-09-04T01:30:40.802Z,100279.91
2022-09-04T01:33:18.488Z,100289.09
2022-09-04T01:36:05.431Z,100285.06
2022-09-04T01:38:45.427Z,100283.06
2022-09-04T01:41:37.697Z,100282.91
2022-09-04T01:44:08.071Z,100281.41
2022-09-04T01:46:43.324Z,100282.88
2022-09-04T01:49:51.384Z,100284.16
2022-09-04T01:52:36.939Z,100286.66
2022-09-04T01:55:18.787Z,100291.94
2022-09-04T01:58:02.697Z,100287.09
2022-09-04T02:00:35.115Z,100286.88
2022-09-04T02:03:35.454Z,100287.09
2022-09-04T02:06:07.606Z,100294.53
2022-09-04T02:08:41.129Z,100289.38
2022-09-04T02:11:27.704Z,100283.91
2022-09-04T02:14:18.114Z,100283.59
2022-09-04T02:17:08.800Z,100288.66
2022-09-04T02:19:46.776Z,100290.53
2022-09-04T02:22:58.160Z,100291.72
2022-09-04T02:25:38.490Z,100294.13
2022-09-04T02:28:37.134Z,100294.97
2022-09-04T02:31:17.970Z,100294.22
2022-09-04T02:34:08.771Z,100294.41
2022-09-04T02:36:44.872Z,100295.09
2022-09-04T02:39:22.688Z,100294.88
2022-09-04T02:42:27.804Z,100301.69
2022-09-04T02:45:02.747Z,100304.75
2022-09-04T02:47:38.820Z,100299.47
2022-09-04T02:50:20.975Z,100300.13
2022-09-04T02:53:03.112Z,100296.75
2022-09-04T02:55:59.130Z,100304.31
2022-09-04T02:58:36.698Z,100299.16
2022-09-04T03:01:27.852Z,100295.91
2022-09-04T03:04:13.273Z,100306.31
2022-09-04T03:07:02.930Z,100302.75
2022-09-04T03:09:37.856Z,100304.19
2022-09-04T03:12:29.864Z,100306.41
2022-09-04T03:15:02.731Z,100308.78
2022-09-04T03:17:48.827Z,100306.13
2022-09-04T03:20:22.684Z,100305.59
2022-09-04T03:22:57.463Z,100310.47
2022-09-04T03:25:50.163Z,100315.59
2022-09-04T03:28:36.922Z,100308.13
2022-09-04T03:31:19.566Z,100321.13
2022-09-04T03:34:02.168Z,100314.75
2022-09-04T03:36:44.440Z,100315.94
2022-09-04T03:39:32.519Z,100317.94
2022-09-04T03:42:15.173Z,100318.03
2022-09-04T03:45:19.587Z,100314.56
2022-09-04T03:48:23.755Z,100321.31
2022-09-04T03:51:33.462Z,100327.63
2022-09-04T03:54:24.036Z,100326.13
2022-09-04T03:57:35.323Z,100325.41
2022-09-04T04:00:11.236Z,100329.38
2022-09-04T04:03:18.893Z,100327.81
2022-09-04T04:06:15.061Z,100332.00
2022-09-04T04:09:03.806Z,100331.13
2022-09-04T04:12:00.115Z,100344.75
2022-09-04T04:14:46.060Z,100344.00
2022-09-04T04:17:27.725Z,100340.53
2022-09-04T04:20:18.180Z,100345.34
2022-09-04T04:23:15.679Z,100347.19
2022-09-04T04:26:00.677Z,100350.13
2022-09-04T04:28:59.099Z,100351.22
2022-09-04T04:31:44.615Z,100360.19
2022-09-04T04:34:24.442Z,100359.88
2022-09-04T04:37:05.873Z,100359.66
2022-09-04T04:39:44.603Z,100364.91
2022-09-04T04:42:40.280Z,100364.09
2022-09-04T04:45:37.331Z,100370.03
2022-09-04T04:48:39.962Z,100366.38
2022-09-04T04:51:44.004Z,100380.91
2022-09-04T04:54:31.705Z,100380.75
2022-09-04T04:57:13.018Z,100384.53
2022-09-04T04:59:44.165Z,100391.56
2022-09-04T05:02:21.459Z,100393.75
2022-09-04T05:04:53.993Z,100398.59
2022-09-04T05:07:37.237Z,100398.59
2022-09-04T05:10:09.676Z,100401.41
2022-09-04T05:12:53.470Z,100405.63
2022-09-04T05:15:31.845Z,100411.91
2022-09-04T05:18:16.290Z,100418.50
2022-09-04T05:20:51.745Z,100418.28
2022-09-04T05:23:59.912Z,100418.19
2022-09-04T05:26:39.695Z,100420.97
2022-09-04T05:29:32.639Z,100423.22
2022-09-04T05:32:20.708Z,100432.28
2022-09-04T05:35:02.633Z,100434.34
2022-09-04T05:37:50.596Z,100441.63
2022-09-04T05:40:32.857Z,100443.94
2022-09-04T05:43:20.276Z,100450.97
2022-09-04T05:46:01.666Z,100456.06
2022-09-04T05:48:52.775Z,100462.22
2022-09-04T05:51:19.844Z,100460.88
2022-09-04T05:54:00.898Z,100466.88
2022-09-04T05:56:39.382Z,100468.22
2022-09-04T05:59:23.739Z,100469.91
2022-09-04T06:02:18.341Z,100480.72
2022-09-04T06:05:03.514Z,100476.22
2022-09-04T06:07:35.874Z,100476.47
2022-09-04T06:10:19.879Z,100475.03
2022-09-04T06:13:11.250Z,100475.19
2022-09-04T06:15:53.353Z,100481.72
2022-09-04T06:18:48.136Z,100489.13
2022-09-04T06:21:17.507Z,100489.31
2022-09-04T06:24:05.578Z,100490.69
2022-09-04T06:27:01.409Z,100495.47
2022-09-04T06:30:01.663Z,100503.91
2022-09-04T06:32:40.294Z,100509.59
2022-09-04T06:35:15.612Z,100509.66
2022-09-04T06:38:20.946Z,100510.50
2022-09-04T06:41:08.591Z,100514.28
2022-09-04T06:44:12.480Z,100515.22
2022-09-04T06:46:48.622Z,100504.53
2022-09-04T06:49:21.168Z,100514.97
2022-09-04T06:52:07.584Z,100527.28
2022-09-04T06:54:56.225Z,100514.63
2022-09-04T06:57:58.547Z,100518.88
2022-09-04T07:00:30.112Z,100517.94
2022-09-04T07:03:14.885Z,100511.16
2022-09-04T07:06:03.484Z,100522.75
2022-09-04T07:08:42.342Z,100525.41
2022-09-04T07:11:42.609Z,100522.84
2022-09-04T07:14:27.671Z,100530.44
2022-09-04T07:16:59.804Z,100540.16
2022-09-04T07:20:04.960Z,100544.34
2022-09-04T07:22:37.184Z,100542.50
2022-09-04T07:25:26.334Z,100544.06
2022-09-04T07:28:13.339Z,100541.06
2022-09-04T07:31:04.784Z,100541.06
2022-09-04T07:33:45.923Z,100550.50
2022-09-04T07:36:50.831Z,100546.31
2022-09-04T07:39:17.160Z,100556.25
2022-09-04T07:42:00.694Z,100558.88
2022-09-04T07:44:39.612Z,100559.25
2022-09-04T07:47:14.189Z,100555.84
2022-09-04T07:49:46.627Z,100558.47
2022-09-04T07:52:41.693Z,100555.41
2022-09-04T07:55:22.129Z,100556.03
2022-09-04T07:58:07.848Z,100570.69
2022-09-04T08:01:00.134Z,100573.75
2022-09-04T08:04:06.354Z,100573.88
2022-09-04T08:06:57.387Z,100577.81
2022-09-04T08:09:49.229Z,100579.03
2022-09-04T08:12:37.188Z,100585.13
2022-09-04T08:15:23.525Z,100590.06
2022-09-04T08:18:11.490Z,100592.41
2022-09-04T08:20:45.637Z,100583.06
2022-09-04T08:23:30.098Z,100593.63
2022-09-04T08:26:34.131Z,100594.28
2022-09-04T08:29:28.977Z,100594.56
2022-09-04T08:32:18.054Z,100598.50
2022-09-04T08:35:15.711Z,100603.75
2022-09-04T08:38:09.961Z,100603.47
2022-09-04T08:40:46.527Z,100609.38
2022-09-04T08:43:44.368Z,100608.56
2022-09-04T08:46:34.959Z,100603.16
2022-09-04T08:49:23.003Z,100607.78
2022-09-04T08:51:58.565Z,100607.47
2022-09-04T08:55:03.138Z,100616.88
2022-09-04T08:58:06.961Z,100617.00
2022-09-04T09:01:05.161Z,100618.34
2022-09-04T09:04:02.711Z,100609.31
2022-09-04T09:06:58.998Z,100622.06
2022-09-04T09:09:47.114Z,100615.94
2022-09-04T09:12:48.082Z,100626.72
2022-09-04T09:15:29.630Z,100631.03
2022-09-04T09:18:04.771Z,100623.22
2022-09-04T09:20:49.321Z,100628.38
2022-09-04T09:23:30.459Z,100618.19
2022-09-04T09:26:15.830Z,100625.88
2022-09-04T09:29:04.151Z,100619.59
2022-09-04T09:31:46.107Z,100614.09
2022-09-04T09:34:57.114Z,100611.06
2022-09-04T09:37:48.593Z,100616.13
2022-09-04T09:40:31.747Z,100609.38
2022-09-04T09:43:20.009Z,100620.38
2022-09-04T09:46:08.161Z,100608.06
2022-09-04T09:48:55.591Z,100604.63
2022-09-04T09:51:40.209Z,100607.56
2022-09-04T09:54:30.996Z,100599.94
2022-09-04T09:57:18.958Z,100596.78
2022-09-04T09:59:51.654Z,100594.19
2022-09-04T10:02:49.398Z,100594.78
2022-09-04T10:05:44.000Z,100596.84
2022-09-04T10:08:35.661Z,100596.47
2022-09-04T10:11:26.681Z,100595.28
2022-09-04T10:14:02.120Z,100599.97
2022-09-04T10:17:04.920Z,100601.44
2022-09-04T10:20:02.129Z,100596.09
2022-09-04T10:22:37.706Z,100594.88
2022-09-04T10:25:42.633Z,100588.31
2022-09-04T10:28:47.388Z,100589.94
2022-09-04T10:31:19.457Z,100587.88
2022-09-04T10:34:30.587Z,100596.47
2022-09-04T10:37:34.600Z,100588.88
2022-09-04T10:40:43.305Z,100585.31
2022-09-04T10:43:27.079Z,100583.81
2022-09-04T10:46:13.914Z,100584.47
2022-09-04T10:49:19.742Z,100584.94
2022-09-04T10:52:12.666Z,100580.09
2022-09-04T10:55:02.416Z,100578.72
2022-09-04T10:57:48.139Z,100578.03
2022-09-04T11:00:22.968Z,100578.41
2022-09-04T11:03:02.572Z,100582.34
2022-09-04T11:05:41.301Z,100589.81
2022-09-04T11:08:15.274Z,100580.34
2022-09-04T11:11:07.248Z,100584.88
2022-09-04T11:14:06.265Z,100579.72
2022-09-04T11:17:21.376Z,100578.41
2022-09-04T11:20:17.557Z,100581.34
2022-09-04T11:23:19.061Z,100575.03
2022-09-04T11:26:06.031Z,100579.72
2022-09-04T11:28:46.641Z,100573.94
2022-09-04T11:31:20.959Z,100572.78
2022-09-04T11:34:20.147Z,100573.72
2022-09-04T11:37:05.303Z,100572.16
2022-09-04T11:39:37.823Z,100571.06
2022-09-04T11:42:18.139Z,100569.38
2022-09-04T11:44:51.655Z,100570.38
2022-09-04T11:47:33.680Z,100567.78
2022-09-04T11:50:24.242Z,100563.34
2022-09-04T11:52:57.983Z,100568.72
2022-09-04T11:55:28.885Z,100568.72
2022-09-04T11:58:10.304Z,100569.13
2022-09-04T12:01:04.018Z,100571.13
2022-09-04T12:04:06.846Z,100565.47
2022-09-04T12:06:45.272Z,100565.78
2022-09-04T12:09:23.956Z,100565.47
2022-09-04T12:12:16.475Z,100564.47
2022-09-04T12:15:16.387Z,100565.97
2022-09-04T12:18:01.306Z,100566.50
2022-09-04T12:20:30.908Z,100575.06
2022-09-04T12:23:20.553Z,100576.44
2022-09-04T12:26:11.535Z,100571.94
2022-09-04T12:28:56.760Z,100581.84
2022-09-04T12:31:52.348Z,100568.38
2022-09-04T12:34:56.327Z,100574.00
2022-09-04T12:37:58.223Z,100584.38
2022-09-04T12:40:51.712Z,100576.28
2022-09-04T12:43:51.878Z,100579.31
2022-09-04T12:46:50.177Z,100569.22
2022-09-04T12:49:31.853Z,100575.84
2022-09-04T12:52:36.384Z,100569.84
2022-09-04T12:55:10.078Z,100572.88
2022-09-04T12:57:37.608Z,100561.56
2022-09-04T13:00:10.478Z,100566.50
2022-09-04T13:02:51.504Z,100577.16
2022-09-04T13:05:31.879Z,100575.34
2022-09-04T13:08:14.160Z,100570.06
2022-09-04T13:11:02.434Z,100565.78
2022-09-04T13:13:59.466Z,100572.63
2022-09-04T13:16:39.872Z,100576.50
2022-09-04T13:19:14.849Z,100571.47
2022-09-04T13:22:00.822Z,100575.44
2022-09-04T13:24:51.237Z,100575.13
2022-09-04T13:27:48.217Z,100570.47
2022-09-04T13:30:25.393Z,100573.00
2022-09-04T13:33:13.709Z,100568.66
2022-09-04T13:36:02.871Z,100574.84
2022-09-04T13:39:06.766Z,100570.50
2022-09-04T13:42:13.197Z,100567.72
2022-09-04T13:45:01.934Z,100566.84
2022-09-04T13:47:59.355Z,100565.69
2022-09-04T13:50:34.611Z,100554.47
2022-09-04T13:53:20.381Z,100555.75
2022-09-04T13:55:54.401Z,100561.63
2022-09-04T13:58:27.432Z,100557.44
2022-09-04T14:00:59.211Z,100561.28
2022-09-04T14:03:44.483Z,100558.78
2022-09-04T14:06:15.039Z,100556.81
2022-09-04T14:08:43.776Z,100548.59
2022-09-04T14:11:37.442Z,100558.03
2022-09-04T14:14:41.219Z,100557.06
2022-09-04T14:17:09.333Z,100561.13
2022-09-04T14:19:54.845Z,100562.50
2022-09-04T14:23:07.466Z,100558.19
2022-09-04T14:25:50.924Z,100560.38
2022-09-04T14:28:33.339Z,100550.34
2022-09-04T14:31:16.339Z,100563.88
2022-09-04T14:34:13.891Z,100565.41
2022-09-04T14:37:16.188Z,100564.44
2022-09-04T14:40:03.257Z,100567.44
2022-09-04T14:42:44.566Z,100557.41
2022-09-04T14:45:24.274Z,100564.81
2022-09-04T14:47:55.743Z,100562.97
2022-09-04T14:50:28.465Z,100560.66
2022-09-04T14:52:59.334Z,100557.63
2022-09-04T14:55:27.223Z,100557.50
2022-09-04T14:58:20.015Z,100561.31
2022-09-04T15:01:01.521Z,100557.78
2022-09-04T15:03:37.447Z,100553.44
2022-09-04T15:06:16.164Z,100556.44
2022-09-04T15:08:45.064Z,100554.59
2022-09-04T15:11:35.532Z,100556.44
2022-09-04T15:14:32.784Z,100557.28
2022-09-04T15:17:05.482Z,100552.72
2022-09-04T15:19:38.014Z,100549.06
2022-09-04T15:22:36.586Z,100546.69
2022-09-04T15:25:12.849Z,100539.59
2022-09-04T15:28:01.258Z,100549.22
2022-09-04T15:30:39.742Z,100550.94
2022-09-04T15:33:11.403Z,100543.94
2022-09-04T15:35:40.650Z,100549.81
2022-09-04T15:38:25.417Z,100546.16
2022-09-04T15:41:15.659Z,100549.00
2022-09-04T15:43:55.553Z,100551.94
2022-09-04T15:46:29.729Z,100550.75
2022-09-04T15:48:59.823Z,100555.13
2022-09-04T15:51:51.929Z,100548.53
2022-09-04T15:54:40.162Z,100549.75
2022-09-04T15:57:16.336Z,100543.91
2022-09-04T15:59:52.334Z,100545.94
2022-09-04T16:02:36.182Z,100536.59
2022-09-04T16:05:41.380Z,100539.66
2022-09-04T16:08:21.571Z,100538.88
2022-09-04T16:10:57.775Z,100533.72
2022-09-04T16:13:27.156Z,100540.97
2022-09-04T16:16:03.974Z,100528.75
2022-09-04T16:19:09.605Z,100537.75
2022-09-04T16:22:03.872Z,100535.75
2022-09-04T16:24:45.745Z,100539.09
2022-09-04T16:27:23.093Z,100538.81
2022-09-04T16:30:02.709Z,100527.31
2022-09-04T16:32:33.449Z,100534.03
2022-09-04T16:35:12.391Z,100531.88
2022-09-04T16:37:44.659Z,100524.53
2022-09-04T16:40:12.439Z,100525.50
2022-09-04T16:43:04.936Z,100513.31
2022-09-04T16:45:45.263Z,100517.56
2022-09-04T16:48:34.667Z,100526.78
2022-09-04T16:51:39.083Z,100523.56
2022-09-04T16:54:10.791Z,100523.75
2022-09-04T16:56:43.467Z,100515.63
2022-09-04T16:59:22.555Z,100513.03
2022-09-04T17:01:57.617Z,100514.41
2022-09-04T17:04:44.282Z,100515.25
2022-09-04T17:07:37.809Z,100514.13
2022-09-04T17:10:22.623Z,100514.13
2022-09-04T17:13:15.587Z,100517.13
2022-09-04T17:16:03.069Z,100511.31
2022-09-04T17:18:30.805Z,100510.94
2022-09-04T17:25:20.987Z,100520.38
2022-09-04T17:28:58.184Z,100511.88
2022-09-04T17:29:11.655Z,100509.69
2022-09-04T17:29:50.122Z,100516.31
2022-09-04T17:33:55.345Z,100518.41
2022-09-04T17:40:39.132Z,100519.72
2022-09-04T17:40:40.112Z,100520.03
2022-09-04T17:42:14.877Z,100522.16
2022-09-04T17:44:57.427Z,100526.19
2022-09-04T17:47:27.363Z,100526.97
2022-09-04T17:49:56.067Z,100532.94
2022-09-04T17:52:29.841Z,100529.22
2022-09-04T17:55:01.673Z,100532.38
2022-09-04T17:58:05.840Z,100533.31
2022-09-04T18:01:13.858Z,100535.09
2022-09-04T18:04:20.733Z,100534.03
2022-09-04T18:06:55.252Z,100543.97
2022-09-04T18:09:30.227Z,100548.91
2022-09-04T18:12:11.094Z,100548.22
2022-09-04T18:14:45.170Z,100547.56
2022-09-04T18:17:24.916Z,100558.13
2022-09-04T18:20:02.824Z,100556.88
2022-09-04T18:22:44.497Z,100562.00
2022-09-04T18:25:18.188Z,100562.59
2022-09-04T18:28:09.659Z,100568.59
2022-09-04T18:37:07.132Z,100569.25
2022-09-04T18:37:26.040Z,100570.59
2022-09-04T18:37:44.573Z,100572.31
2022-09-04T18:40:21.554Z,100576.34
2022-09-04T18:50:25.756Z,100583.00
2022-09-04T18:50:34.464Z,100583.28
2022-09-04T18:50:52.244Z,100580.78
2022-09-04T18:52:00.476Z,100584.91
2022-09-04T18:54:39.602Z,100593.25
2022-09-04T18:57:22.603Z,100593.66
2022-09-04T18:59:59.783Z,100591.84
2022-09-04T19:02:56.160Z,100590.00
2022-09-04T19:05:44.465Z,100584.84
2022-09-04T19:08:19.880Z,100590.31
2022-09-04T19:10:54.079Z,100590.03
2022-09-04T19:13:44.776Z,100587.69
2022-09-04T19:16:29.518Z,100591.59
2022-09-04T19:19:09.533Z,100585.88
2022-09-04T19:22:12.302Z,100599.31
2022-09-04T19:24:51.723Z,100596.50
2022-09-04T19:27:28.278Z,100600.16
2022-09-04T19:30:03.572Z,100600.03
2022-09-04T19:33:04.788Z,100594.31
2022-09-04T19:35:48.264Z,100591.25
2022-09-04T19:44:38.681Z,100589.16
2022-09-04T19:45:56.907Z,100582.47
2022-09-04T19:45:59.935Z,100595.59
2022-09-04T19:47:29.131Z,100593.31
2022-09-04T19:53:21.712Z,100585.59
2022-09-04T19:53:24.220Z,100592.16
2022-09-04T19:56:02.326Z,100592.88
2022-09-04T19:58:45.778Z,100593.16
2022-09-04T20:01:17.462Z,100589.91
2022-09-04T20:03:52.054Z,100583.91
2022-09-04T20:06:30.023Z,100588.97
2022-09-04T20:09:11.867Z,100585.03
2022-09-04T20:11:55.600Z,100591.75
2022-09-04T20:14:27.423Z,100581.69
2022-09-04T20:17:09.590Z,100584.19
2022-09-04T20:20:06.984Z,100588.50
2022-09-04T20:22:46.206Z,100592.69
2022-09-04T20:25:31.103Z,100591.00
2022-09-04T20:28:13.095Z,100587.13
2022-09-04T20:30:44.374Z,100586.56
2022-09-04T20:33:21.650Z,100583.63
2022-09-04T20:36:07.636Z,100578.88
2022-09-04T20:38:52.410Z,100576.66
2022-09-04T20:41:26.919Z,100580.09
2022-09-04T20:44:19.288Z,100584.13
2022-09-04T20:52:42.793Z,100578.06
2022-09-04T20:52:52.612Z,100583.50
2022-09-04T20:53:13.425Z,100590.47
2022-09-04T20:55:58.758Z,100585.41
2022-09-04T21:03:11.237Z,100585.94
2022-09-04T21:03:22.692Z,100594.41
2022-09-04T21:05:10.908Z,100594.56
2022-09-04T21:07:52.400Z,100596.03
2022-09-04T21:10:34.533Z,100596.56
2022-09-04T21:13:13.399Z,100598.34
2022-09-04T21:15:46.787Z,100596.84
2022-09-04T21:18:40.193Z,100598.31
2022-09-04T21:21:06.753Z,100605.84
2022-09-04T21:24:01.962Z,100606.44
2022-09-04T21:27:16.536Z,100607.28
2022-09-04T21:29:51.761Z,100608.19
2022-09-04T21:32:48.782Z,100608.28
2022-09-04T21:35:32.247Z,100614.94
2022-09-04T21:38:26.716Z,100619.16
2022-09-04T21:41:03.402Z,100620.38
2022-09-04T21:43:48.335Z,100621.97
2022-09-04T21:46:52.412Z,100623.31
2022-09-04T21:49:29.347Z,100630.25
2022-09-04T21:52:24.547Z,100623.19
2022-09-04T21:57:14.996Z,100622.09
2022-09-04T22:02:36.821Z,100615.97
2022-09-04T22:02:37.645Z,100619.09
2022-09-04T22:04:25.574Z,100623.53
2022-09-04T22:10:49.532Z,100626.28
2022-09-04T22:13:32.172Z,100621.97
2022-09-04T22:13:50.219Z,100623.78
2022-09-04T22:16:44.929Z,100624.28
2022-09-04T22:19:40.292Z,100627.75
2022-09-04T22:22:41.887Z,100623.31
2022-09-04T22:25:11.334Z,100625.22
2022-09-04T22:28:07.842Z,100623.06
2022-09-04T22:31:03.575Z,100627.84
2022-09-04T22:34:15.477Z,100621.63
2022-09-04T22:36:46.940Z,100625.19
2022-09-04T22:39:53.417Z,100634.44
2022-09-04T22:42:51.305Z,100638.56
2022-09-04T22:45:43.335Z,100632.22
2022-09-04T22:48:44.101Z,100635.47
2022-09-04T22:51:29.467Z,100638.91
2022-09-04T22:54:31.142Z,100636.91
2022-09-04T22:57:06.327Z,100633.94
2022-09-04T22:59:55.009Z,100636.19
2022-09-04T23:03:07.011Z,100634.72
2022-09-04T23:06:14.037Z,100634.94
2022-09-04T23:13:43.965Z,100633.44
2022-09-04T23:13:57.108Z,100632.31
2022-09-04T23:14:52.719Z,100631.75
2022-09-04T23:20:00.622Z,100637.16
2022-09-04T23:26:37.588Z,100637.31
2022-09-04T23:26:39.477Z,100634.56
2022-09-04T23:27:28.590Z,100629.75
2022-09-04T23:30:05.160Z,100629.50
2022-09-04T23:32:47.077Z,100626.16
2022-09-04T23:35:55.504Z,100625.22
2022-09-04T23:38:46.497Z,100619.72
2022-09-04T23:41:19.033Z,100625.22
2022-09-04T23:44:07.331Z,100624.88
2022-09-04T23:46:42.879Z,100623.50
2022-09-04T23:49:40.223Z,100617.53
2022-09-04T23:52:31.813Z,100616.13
2022-09-04T23:55:24.040Z,100617.78
2022-09-04T23:58:21.358Z,100611.69
